<?xml version="1.0" encoding="UTF-8" standalone="no" ?>
<gpx xmlns="http://www.topografix.com/GPX/1/1" xmlns:xsi="http://www.w3.org/2001/XMLSchema-instance" xsi:schemaLocation="http://www.topografix.com/GPX/1/1 http://www.topografix.com/GPX/1/1/gpx.xsd" version="1.1" creator="VisuGPX - https://www.visugpx.com">
  <metadata>
    <name>Rando Vosges petit ballon - 3jours revisité</name>
  </metadata>
  <trk>
    <name><![CDATA[Rando Vosges petit ballon - 3jours revisité_3]]></name>
    <extensions>
      <line xmlns="http://www.topografix.com/GPX/gpx_style/0/2">
        <color>00ffbf</color>
        <width>4</width>
      </line>
    </extensions>
    <trkseg>
      <trkpt lat="47.98356" lon="6.98264">
        <ele>1217</ele>
        <time>2021-09-27T00:45:09Z</time>
      </trkpt>
      <trkpt lat="47.98305" lon="6.9833">
        <ele>1215</ele>
        <time>2021-09-27T00:46:39Z</time>
      </trkpt>
      <trkpt lat="47.98185" lon="6.98351">
        <ele>1206</ele>
        <time>2021-09-27T00:49:21Z</time>
      </trkpt>
      <trkpt lat="47.98107" lon="6.98387">
        <ele>1196</ele>
        <time>2021-09-27T00:51:10Z</time>
      </trkpt>
      <trkpt lat="47.97928" lon="6.98545">
        <ele>1188</ele>
        <time>2021-09-27T00:55:47Z</time>
      </trkpt>
      <trkpt lat="47.97826" lon="6.98601">
        <ele>1201</ele>
        <time>2021-09-27T00:58:12Z</time>
      </trkpt>
      <trkpt lat="47.97757" lon="6.98671">
        <ele>1211</ele>
        <time>2021-09-27T01:00:03Z</time>
      </trkpt>
      <trkpt lat="47.97682" lon="6.98753">
        <ele>1226</ele>
        <time>2021-09-27T01:02:07Z</time>
      </trkpt>
      <trkpt lat="47.97614" lon="6.98829">
        <ele>1240</ele>
        <time>2021-09-27T01:04:01Z</time>
      </trkpt>
      <trkpt lat="47.97491" lon="6.99021">
        <ele>1264</ele>
        <time>2021-09-27T01:07:58Z</time>
      </trkpt>
      <trkpt lat="47.97426" lon="6.99052">
        <ele>1260</ele>
        <time>2021-09-27T01:09:29Z</time>
      </trkpt>
      <trkpt lat="47.9734" lon="6.99105">
        <ele>1259</ele>
        <time>2021-09-27T01:11:33Z</time>
      </trkpt>
      <trkpt lat="47.97138" lon="6.99136">
        <ele>1242</ele>
        <time>2021-09-27T01:16:04Z</time>
      </trkpt>
      <trkpt lat="47.97084" lon="6.99151">
        <ele>1240</ele>
        <time>2021-09-27T01:17:18Z</time>
      </trkpt>
      <trkpt lat="47.97022" lon="6.99197">
        <ele>1238</ele>
        <time>2021-09-27T01:18:50Z</time>
      </trkpt>
      <trkpt lat="47.96928" lon="6.99239">
        <ele>1234</ele>
        <time>2021-09-27T01:21:01Z</time>
      </trkpt>
      <trkpt lat="47.9687" lon="6.99295">
        <ele>1222</ele>
        <time>2021-09-27T01:22:33Z</time>
      </trkpt>
      <trkpt lat="47.96812" lon="6.99464">
        <ele>1198</ele>
        <time>2021-09-27T01:25:23Z</time>
      </trkpt>
      <trkpt lat="47.96743" lon="6.99535">
        <ele>1192</ele>
        <time>2021-09-27T01:27:15Z</time>
      </trkpt>
      <trkpt lat="47.96665" lon="6.99581">
        <ele>1195</ele>
        <time>2021-09-27T01:29:06Z</time>
      </trkpt>
      <trkpt lat="47.96591" lon="6.99649">
        <ele>1199</ele>
        <time>2021-09-27T01:31:02Z</time>
      </trkpt>
      <trkpt lat="47.96437" lon="6.9971">
        <ele>1209</ele>
        <time>2021-09-27T01:34:35Z</time>
      </trkpt>
      <trkpt lat="47.96294" lon="6.99797">
        <ele>1215</ele>
        <time>2021-09-27T01:38:01Z</time>
      </trkpt>
      <trkpt lat="47.96263" lon="6.99853">
        <ele>1217</ele>
        <time>2021-09-27T01:39:06Z</time>
      </trkpt>
      <trkpt lat="47.96215" lon="7.00012">
        <ele>1218</ele>
        <time>2021-09-27T01:41:42Z</time>
      </trkpt>
      <trkpt lat="47.96174" lon="7.00181">
        <ele>1222</ele>
        <time>2021-09-27T01:44:22Z</time>
      </trkpt>
      <trkpt lat="47.96072" lon="7.00293">
        <ele>1216</ele>
        <time>2021-09-27T01:47:11Z</time>
      </trkpt>
      <trkpt lat="47.95979" lon="7.00426">
        <ele>1206</ele>
        <time>2021-09-27T01:50:03Z</time>
      </trkpt>
      <trkpt lat="47.95924" lon="7.00472">
        <ele>1202</ele>
        <time>2021-09-27T01:51:27Z</time>
      </trkpt>
      <trkpt lat="47.95852" lon="7.00487">
        <ele>1203</ele>
        <time>2021-09-27T01:53:04Z</time>
      </trkpt>
      <trkpt lat="47.9575" lon="7.00523">
        <ele>1199</ele>
        <time>2021-09-27T01:55:24Z</time>
      </trkpt>
      <trkpt lat="47.95678" lon="7.00584">
        <ele>1198</ele>
        <time>2021-09-27T01:57:15Z</time>
      </trkpt>
      <trkpt lat="47.95599" lon="7.0062">
        <ele>1200</ele>
        <time>2021-09-27T01:59:05Z</time>
      </trkpt>
      <trkpt lat="47.95555" lon="7.00676">
        <ele>1200</ele>
        <time>2021-09-27T02:00:22Z</time>
      </trkpt>
      <trkpt lat="47.95494" lon="7.0086">
        <ele>1194</ele>
        <time>2021-09-27T02:03:26Z</time>
      </trkpt>
      <trkpt lat="47.9548" lon="7.01054">
        <ele>1192</ele>
        <time>2021-09-27T02:06:20Z</time>
      </trkpt>
      <trkpt lat="47.95408" lon="7.01329">
        <ele>1177</ele>
        <time>2021-09-27T02:10:44Z</time>
      </trkpt>
      <trkpt lat="47.95364" lon="7.01503">
        <ele>1175</ele>
        <time>2021-09-27T02:13:30Z</time>
      </trkpt>
      <trkpt lat="47.9535" lon="7.01631">
        <ele>1174</ele>
        <time>2021-09-27T02:15:26Z</time>
      </trkpt>
      <trkpt lat="47.95306" lon="7.01784">
        <ele>1165</ele>
        <time>2021-09-27T02:17:55Z</time>
      </trkpt>
      <trkpt lat="47.95231" lon="7.0185">
        <ele>1177</ele>
        <time>2021-09-27T02:19:51Z</time>
      </trkpt>
      <trkpt lat="47.95175" lon="7.01961">
        <ele>1184</ele>
        <time>2021-09-27T02:21:55Z</time>
      </trkpt>
      <trkpt lat="47.95201" lon="7.02087">
        <ele>1189</ele>
        <time>2021-09-27T02:23:53Z</time>
      </trkpt>
      <trkpt lat="47.95199" lon="7.02217">
        <ele>1197</ele>
        <time>2021-09-27T02:25:49Z</time>
      </trkpt>
      <trkpt lat="47.95175" lon="7.02399">
        <ele>1214</ele>
        <time>2021-09-27T02:28:35Z</time>
      </trkpt>
      <trkpt lat="47.95147" lon="7.02673">
        <ele>1238</ele>
        <time>2021-09-27T02:32:43Z</time>
      </trkpt>
      <trkpt lat="47.95128" lon="7.02829">
        <ele>1244</ele>
        <time>2021-09-27T02:35:04Z</time>
      </trkpt>
      <trkpt lat="47.95142" lon="7.03058">
        <ele>1251</ele>
        <time>2021-09-27T02:38:30Z</time>
      </trkpt>
      <trkpt lat="47.95162" lon="7.03257">
        <ele>1252</ele>
        <time>2021-09-27T02:41:30Z</time>
      </trkpt>
      <trkpt lat="47.95189" lon="7.03355">
        <ele>1248</ele>
        <time>2021-09-27T02:43:05Z</time>
      </trkpt>
      <trkpt lat="47.95159" lon="7.03516">
        <ele>1249</ele>
        <time>2021-09-27T02:45:34Z</time>
      </trkpt>
      <trkpt lat="47.95084" lon="7.03697">
        <ele>1245</ele>
        <time>2021-09-27T02:48:44Z</time>
      </trkpt>
      <trkpt lat="47.9501" lon="7.03804">
        <ele>1243</ele>
        <time>2021-09-27T02:51:02Z</time>
      </trkpt>
      <trkpt lat="47.94962" lon="7.03939">
        <ele>1240</ele>
        <time>2021-09-27T02:53:18Z</time>
      </trkpt>
      <trkpt lat="47.94935" lon="7.03992">
        <ele>1235</ele>
        <time>2021-09-27T02:54:18Z</time>
      </trkpt>
      <trkpt lat="47.94919" lon="7.04026">
        <ele>1233</ele>
        <time>2021-09-27T02:54:55Z</time>
      </trkpt>
      <trkpt lat="47.94871" lon="7.04235">
        <ele>1221</ele>
        <time>2021-09-27T02:58:12Z</time>
      </trkpt>
      <trkpt lat="47.94833" lon="7.04439">
        <ele>1211</ele>
        <time>2021-09-27T03:01:22Z</time>
      </trkpt>
      <trkpt lat="47.9477" lon="7.04531">
        <ele>1203</ele>
        <time>2021-09-27T03:03:19Z</time>
      </trkpt>
      <trkpt lat="47.94689" lon="7.04653">
        <ele>1207</ele>
        <time>2021-09-27T03:05:53Z</time>
      </trkpt>
      <trkpt lat="47.94624" lon="7.04749">
        <ele>1212</ele>
        <time>2021-09-27T03:07:55Z</time>
      </trkpt>
      <trkpt lat="47.94576" lon="7.04898">
        <ele>1218</ele>
        <time>2021-09-27T03:10:23Z</time>
      </trkpt>
      <trkpt lat="47.94569" lon="7.04987">
        <ele>1223</ele>
        <time>2021-09-27T03:11:43Z</time>
      </trkpt>
      <trkpt lat="47.94571" lon="7.05072">
        <ele>1228</ele>
        <time>2021-09-27T03:12:59Z</time>
      </trkpt>
      <trkpt lat="47.94562" lon="7.05187">
        <ele>1232</ele>
        <time>2021-09-27T03:14:42Z</time>
      </trkpt>
      <trkpt lat="47.94544" lon="7.05285">
        <ele>1235</ele>
        <time>2021-09-27T03:16:13Z</time>
      </trkpt>
      <trkpt lat="47.9451" lon="7.05384">
        <ele>1234</ele>
        <time>2021-09-27T03:17:52Z</time>
      </trkpt>
      <trkpt lat="47.94479" lon="7.05494">
        <ele>1226</ele>
        <time>2021-09-27T03:19:39Z</time>
      </trkpt>
      <trkpt lat="47.94515" lon="7.05526">
        <ele>1223</ele>
        <time>2021-09-27T03:20:35Z</time>
      </trkpt>
      <trkpt lat="47.94564" lon="7.05528">
        <ele>1229</ele>
        <time>2021-09-27T03:21:40Z</time>
      </trkpt>
      <trkpt lat="47.94609" lon="7.05532">
        <ele>1235</ele>
        <time>2021-09-27T03:22:41Z</time>
      </trkpt>
      <trkpt lat="47.94661" lon="7.05559">
        <ele>1232</ele>
        <time>2021-09-27T03:23:54Z</time>
      </trkpt>
      <trkpt lat="47.94698" lon="7.05586">
        <ele>1228</ele>
        <time>2021-09-27T03:24:49Z</time>
      </trkpt>
      <trkpt lat="47.94736" lon="7.05607">
        <ele>1232</ele>
        <time>2021-09-27T03:25:43Z</time>
      </trkpt>
      <trkpt lat="47.94779" lon="7.05639">
        <ele>1239</ele>
        <time>2021-09-27T03:26:47Z</time>
      </trkpt>
      <trkpt lat="47.94792" lon="7.05687">
        <ele>1234</ele>
        <time>2021-09-27T03:27:34Z</time>
      </trkpt>
      <trkpt lat="47.94802" lon="7.05745">
        <ele>1230</ele>
        <time>2021-09-27T03:28:27Z</time>
      </trkpt>
      <trkpt lat="47.94794" lon="7.05795">
        <ele>1222</ele>
        <time>2021-09-27T03:29:13Z</time>
      </trkpt>
      <trkpt lat="47.94808" lon="7.05864">
        <ele>1225</ele>
        <time>2021-09-27T03:30:17Z</time>
      </trkpt>
      <trkpt lat="47.94806" lon="7.05942">
        <ele>1221</ele>
        <time>2021-09-27T03:31:27Z</time>
      </trkpt>
      <trkpt lat="47.94809" lon="7.06027">
        <ele>1219</ele>
        <time>2021-09-27T03:32:43Z</time>
      </trkpt>
      <trkpt lat="47.94816" lon="7.06089">
        <ele>1220</ele>
        <time>2021-09-27T03:33:39Z</time>
      </trkpt>
      <trkpt lat="47.94816" lon="7.06143">
        <ele>1214</ele>
        <time>2021-09-27T03:34:28Z</time>
      </trkpt>
      <trkpt lat="47.94838" lon="7.06201">
        <ele>1217</ele>
        <time>2021-09-27T03:35:27Z</time>
      </trkpt>
      <trkpt lat="47.94874" lon="7.06264">
        <ele>1216</ele>
        <time>2021-09-27T03:36:41Z</time>
      </trkpt>
      <trkpt lat="47.94902" lon="7.06301">
        <ele>1213</ele>
        <time>2021-09-27T03:37:31Z</time>
      </trkpt>
      <trkpt lat="47.94961" lon="7.06334">
        <ele>1217</ele>
        <time>2021-09-27T03:38:55Z</time>
      </trkpt>
      <trkpt lat="47.95007" lon="7.0643">
        <ele>1203</ele>
        <time>2021-09-27T03:40:41Z</time>
      </trkpt>
      <trkpt lat="47.95031" lon="7.0649">
        <ele>1192</ele>
        <time>2021-09-27T03:41:43Z</time>
      </trkpt>
      <trkpt lat="47.95024" lon="7.06561">
        <ele>1194</ele>
        <time>2021-09-27T03:42:47Z</time>
      </trkpt>
      <trkpt lat="47.95009" lon="7.06659">
        <ele>1201</ele>
        <time>2021-09-27T03:44:17Z</time>
      </trkpt>
      <trkpt lat="47.94995" lon="7.06746">
        <ele>1209</ele>
        <time>2021-09-27T03:45:37Z</time>
      </trkpt>
      <trkpt lat="47.94979" lon="7.06812">
        <ele>1212</ele>
        <time>2021-09-27T03:46:40Z</time>
      </trkpt>
      <trkpt lat="47.94964" lon="7.06857">
        <ele>1213</ele>
        <time>2021-09-27T03:47:25Z</time>
      </trkpt>
      <trkpt lat="47.94942" lon="7.06929">
        <ele>1214</ele>
        <time>2021-09-27T03:48:36Z</time>
      </trkpt>
      <trkpt lat="47.9492" lon="7.06974">
        <ele>1212</ele>
        <time>2021-09-27T03:49:25Z</time>
      </trkpt>
      <trkpt lat="47.949" lon="7.07042">
        <ele>1208</ele>
        <time>2021-09-27T03:50:32Z</time>
      </trkpt>
      <trkpt lat="47.94912" lon="7.07114">
        <ele>1211</ele>
        <time>2021-09-27T03:51:38Z</time>
      </trkpt>
      <trkpt lat="47.94943" lon="7.07174">
        <ele>1216</ele>
        <time>2021-09-27T03:52:46Z</time>
      </trkpt>
      <trkpt lat="47.94986" lon="7.07252">
        <ele>1221</ele>
        <time>2021-09-27T03:54:16Z</time>
      </trkpt>
      <trkpt lat="47.95025" lon="7.07293">
        <ele>1222</ele>
        <time>2021-09-27T03:55:20Z</time>
      </trkpt>
      <trkpt lat="47.95094" lon="7.07316">
        <ele>1233</ele>
        <time>2021-09-27T03:56:54Z</time>
      </trkpt>
      <trkpt lat="47.95131" lon="7.07354">
        <ele>1232</ele>
        <time>2021-09-27T03:57:54Z</time>
      </trkpt>
      <trkpt lat="47.95165" lon="7.07412">
        <ele>1228</ele>
        <time>2021-09-27T03:59:03Z</time>
      </trkpt>
      <trkpt lat="47.95194" lon="7.07505">
        <ele>1225</ele>
        <time>2021-09-27T04:00:35Z</time>
      </trkpt>
      <trkpt lat="47.95205" lon="7.07558">
        <ele>1225</ele>
        <time>2021-09-27T04:01:24Z</time>
      </trkpt>
      <trkpt lat="47.95213" lon="7.07632">
        <ele>1224</ele>
        <time>2021-09-27T04:02:31Z</time>
      </trkpt>
      <trkpt lat="47.95209" lon="7.07693">
        <ele>1220</ele>
        <time>2021-09-27T04:03:26Z</time>
      </trkpt>
      <trkpt lat="47.95209" lon="7.07785">
        <ele>1217</ele>
        <time>2021-09-27T04:04:48Z</time>
      </trkpt>
      <trkpt lat="47.95213" lon="7.07849">
        <ele>1214</ele>
        <time>2021-09-27T04:05:46Z</time>
      </trkpt>
      <trkpt lat="47.95258" lon="7.07896">
        <ele>1225</ele>
        <time>2021-09-27T04:06:59Z</time>
      </trkpt>
      <trkpt lat="47.95307" lon="7.07953">
        <ele>1233</ele>
        <time>2021-09-27T04:08:22Z</time>
      </trkpt>
      <trkpt lat="47.95344" lon="7.08007">
        <ele>1241</ele>
        <time>2021-09-27T04:09:31Z</time>
      </trkpt>
      <trkpt lat="47.95378" lon="7.08079">
        <ele>1251</ele>
        <time>2021-09-27T04:10:50Z</time>
      </trkpt>
      <trkpt lat="47.95395" lon="7.08148">
        <ele>1256</ele>
        <time>2021-09-27T04:11:55Z</time>
      </trkpt>
      <trkpt lat="47.95414" lon="7.08293">
        <ele>1257</ele>
        <time>2021-09-27T04:14:07Z</time>
      </trkpt>
      <trkpt lat="47.95431" lon="7.0838">
        <ele>1253</ele>
        <time>2021-09-27T04:15:28Z</time>
      </trkpt>
      <trkpt lat="47.95477" lon="7.08408">
        <ele>1254</ele>
        <time>2021-09-27T04:16:35Z</time>
      </trkpt>
      <trkpt lat="47.95528" lon="7.08366">
        <ele>1260</ele>
        <time>2021-09-27T04:17:52Z</time>
      </trkpt>
      <trkpt lat="47.95578" lon="7.08296">
        <ele>1265</ele>
        <time>2021-09-27T04:19:24Z</time>
      </trkpt>
      <trkpt lat="47.95629" lon="7.08278">
        <ele>1265</ele>
        <time>2021-09-27T04:20:34Z</time>
      </trkpt>
      <trkpt lat="47.95705" lon="7.0827">
        <ele>1264</ele>
        <time>2021-09-27T04:22:16Z</time>
      </trkpt>
      <trkpt lat="47.9578" lon="7.08259">
        <ele>1263</ele>
        <time>2021-09-27T04:23:56Z</time>
      </trkpt>
      <trkpt lat="47.9589" lon="7.08282">
        <ele>1255</ele>
        <time>2021-09-27T04:26:24Z</time>
      </trkpt>
      <trkpt lat="47.96108" lon="7.08351">
        <ele>1247</ele>
        <time>2021-09-27T04:31:22Z</time>
      </trkpt>
      <trkpt lat="47.96188" lon="7.08419">
        <ele>1246</ele>
        <time>2021-09-27T04:33:25Z</time>
      </trkpt>
      <trkpt lat="47.96262" lon="7.08566">
        <ele>1251</ele>
        <time>2021-09-27T04:36:09Z</time>
      </trkpt>
      <trkpt lat="47.96303" lon="7.08671">
        <ele>1246</ele>
        <time>2021-09-27T04:37:57Z</time>
      </trkpt>
      <trkpt lat="47.96388" lon="7.0877">
        <ele>1243</ele>
        <time>2021-09-27T04:40:21Z</time>
      </trkpt>
      <trkpt lat="47.9644" lon="7.0885">
        <ele>1236</ele>
        <time>2021-09-27T04:42:01Z</time>
      </trkpt>
      <trkpt lat="47.96528" lon="7.0893">
        <ele>1222</ele>
        <time>2021-09-27T04:44:18Z</time>
      </trkpt>
      <trkpt lat="47.9659" lon="7.0907">
        <ele>1206</ele>
        <time>2021-09-27T04:46:48Z</time>
      </trkpt>
      <trkpt lat="47.96658" lon="7.09257">
        <ele>1177</ele>
        <time>2021-09-27T04:49:59Z</time>
      </trkpt>
      <trkpt lat="47.96675" lon="7.09331">
        <ele>1171</ele>
        <time>2021-09-27T04:51:08Z</time>
      </trkpt>
      <trkpt lat="47.96789" lon="7.09483">
        <ele>1153</ele>
        <time>2021-09-27T04:54:32Z</time>
      </trkpt>
      <trkpt lat="47.96919" lon="7.09756">
        <ele>1122</ele>
        <time>2021-09-27T04:59:32Z</time>
      </trkpt>
      <trkpt lat="47.97051" lon="7.10013">
        <ele>1125</ele>
        <time>2021-09-27T05:04:21Z</time>
      </trkpt>
      <trkpt lat="47.97207" lon="7.10438">
        <ele>1176</ele>
        <time>2021-09-27T05:11:34Z</time>
      </trkpt>
      <trkpt lat="47.97261" lon="7.10454">
        <ele>1191</ele>
        <time>2021-09-27T05:12:48Z</time>
      </trkpt>
      <trkpt lat="47.97277" lon="7.10432">
        <ele>1190</ele>
        <time>2021-09-27T05:13:17Z</time>
      </trkpt>
      <trkpt lat="47.97322" lon="7.10426">
        <ele>1195</ele>
        <time>2021-09-27T05:14:17Z</time>
      </trkpt>
      <trkpt lat="47.97412" lon="7.10499">
        <ele>1199</ele>
        <time>2021-09-27T05:16:34Z</time>
      </trkpt>
      <trkpt lat="47.97636" lon="7.10647">
        <ele>1197</ele>
        <time>2021-09-27T05:22:00Z</time>
      </trkpt>
      <trkpt lat="47.97697" lon="7.10768">
        <ele>1194</ele>
        <time>2021-09-27T05:24:16Z</time>
      </trkpt>
      <trkpt lat="47.97787" lon="7.1105">
        <ele>1190</ele>
        <time>2021-09-27T05:28:55Z</time>
      </trkpt>
      <trkpt lat="47.97842" lon="7.11194">
        <ele>1185</ele>
        <time>2021-09-27T05:31:23Z</time>
      </trkpt>
      <trkpt lat="47.97885" lon="7.11366">
        <ele>1184</ele>
        <time>2021-09-27T05:34:07Z</time>
      </trkpt>
      <trkpt lat="47.97896" lon="7.11515">
        <ele>1193</ele>
        <time>2021-09-27T05:36:21Z</time>
      </trkpt>
      <trkpt lat="47.97875" lon="7.11677">
        <ele>1198</ele>
        <time>2021-09-27T05:38:48Z</time>
      </trkpt>
      <trkpt lat="47.97853" lon="7.11793">
        <ele>1198</ele>
        <time>2021-09-27T05:40:36Z</time>
      </trkpt>
      <trkpt lat="47.97872" lon="7.11897">
        <ele>1199</ele>
        <time>2021-09-27T05:42:12Z</time>
      </trkpt>
      <trkpt lat="47.97933" lon="7.12008">
        <ele>1198</ele>
        <time>2021-09-27T05:44:21Z</time>
      </trkpt>
      <trkpt lat="47.98002" lon="7.12174">
        <ele>1201</ele>
        <time>2021-09-27T05:47:15Z</time>
      </trkpt>
      <trkpt lat="47.98027" lon="7.12331">
        <ele>1221</ele>
        <time>2021-09-27T05:49:39Z</time>
      </trkpt>
      <trkpt lat="47.98065" lon="7.1258">
        <ele>1261</ele>
        <time>2021-09-27T05:53:27Z</time>
      </trkpt>
      <trkpt lat="47.9808" lon="7.12726">
        <ele>1257</ele>
        <time>2021-09-27T05:55:39Z</time>
      </trkpt>
      <trkpt lat="47.98098" lon="7.12881">
        <ele>1239</ele>
        <time>2021-09-27T05:58:00Z</time>
      </trkpt>
      <trkpt lat="47.98164" lon="7.12907">
        <ele>1225</ele>
        <time>2021-09-27T05:59:31Z</time>
      </trkpt>
      <trkpt lat="47.98267" lon="7.12899">
        <ele>1211</ele>
        <time>2021-09-27T06:01:49Z</time>
      </trkpt>
      <trkpt lat="47.98395" lon="7.12993">
        <ele>1188</ele>
        <time>2021-09-27T06:04:59Z</time>
      </trkpt>
      <trkpt lat="47.98565" lon="7.13017">
        <ele>1156</ele>
        <time>2021-09-27T06:08:47Z</time>
      </trkpt>
      <trkpt lat="47.9857" lon="7.12978">
        <ele>1156</ele>
        <time>2021-09-27T06:09:22Z</time>
      </trkpt>
      <trkpt lat="47.98574" lon="7.12932">
        <ele>1154</ele>
        <time>2021-09-27T06:10:04Z</time>
      </trkpt>
      <trkpt lat="47.98581" lon="7.12859">
        <ele>1148</ele>
        <time>2021-09-27T06:11:10Z</time>
      </trkpt>
      <trkpt lat="47.98583" lon="7.12806">
        <ele>1144</ele>
        <time>2021-09-27T06:11:57Z</time>
      </trkpt>
      <trkpt lat="47.98585" lon="7.1276">
        <ele>1142</ele>
        <time>2021-09-27T06:12:38Z</time>
      </trkpt>
      <trkpt lat="47.98632" lon="7.12629">
        <ele>1120</ele>
        <time>2021-09-27T06:14:51Z</time>
      </trkpt>
      <trkpt lat="47.9869" lon="7.12546">
        <ele>1106</ele>
        <time>2021-09-27T06:16:38Z</time>
      </trkpt>
      <trkpt lat="47.9887" lon="7.1246">
        <ele>1075</ele>
        <time>2021-09-27T06:20:50Z</time>
      </trkpt>
      <trkpt lat="47.98844" lon="7.12656">
        <ele>1058</ele>
        <time>2021-09-27T06:23:49Z</time>
      </trkpt>
      <trkpt lat="47.98995" lon="7.12795">
        <ele>1040</ele>
        <time>2021-09-27T06:27:45Z</time>
      </trkpt>
      <trkpt lat="47.9909" lon="7.12888">
        <ele>1025</ele>
        <time>2021-09-27T06:30:17Z</time>
      </trkpt>
      <trkpt lat="47.99214" lon="7.13025">
        <ele>1015</ele>
        <time>2021-09-27T06:33:43Z</time>
      </trkpt>
      <trkpt lat="47.99231" lon="7.13112">
        <ele>1009</ele>
        <time>2021-09-27T06:35:04Z</time>
      </trkpt>
      <trkpt lat="47.9956" lon="7.13238">
        <ele>1003</ele>
        <time>2021-09-27T06:42:37Z</time>
      </trkpt>
      <trkpt lat="47.99633" lon="7.13253">
        <ele>1015</ele>
        <time>2021-09-27T06:44:15Z</time>
      </trkpt>
      <trkpt lat="47.99683" lon="7.1334">
        <ele>1008</ele>
        <time>2021-09-27T06:45:58Z</time>
      </trkpt>
      <trkpt lat="47.99725" lon="7.13345">
        <ele>1009</ele>
        <time>2021-09-27T06:46:54Z</time>
      </trkpt>
      <trkpt lat="47.99795" lon="7.13369">
        <ele>998</ele>
        <time>2021-09-27T06:48:30Z</time>
      </trkpt>
      <trkpt lat="47.99876" lon="7.13442">
        <ele>983</ele>
        <time>2021-09-27T06:50:36Z</time>
      </trkpt>
      <trkpt lat="47.99993" lon="7.13549">
        <ele>980</ele>
        <time>2021-09-27T06:53:39Z</time>
      </trkpt>
      <trkpt lat="48.0015" lon="7.13675">
        <ele>960</ele>
        <time>2021-09-27T06:57:37Z</time>
      </trkpt>
      <trkpt lat="48.00252" lon="7.13731">
        <ele>946</ele>
        <time>2021-09-27T07:00:02Z</time>
      </trkpt>
      <trkpt lat="48.00514" lon="7.138">
        <ele>912</ele>
        <time>2021-09-27T07:05:57Z</time>
      </trkpt>
      <trkpt lat="48.00607" lon="7.13835">
        <ele>912</ele>
        <time>2021-09-27T07:08:05Z</time>
      </trkpt>
      <trkpt lat="48.00713" lon="7.13819">
        <ele>900</ele>
        <time>2021-09-27T07:10:27Z</time>
      </trkpt>
      <trkpt lat="48.00822" lon="7.13717">
        <ele>893</ele>
        <time>2021-09-27T07:13:19Z</time>
      </trkpt>
      <trkpt lat="48.00949" lon="7.13732">
        <ele>879</ele>
        <time>2021-09-27T07:16:09Z</time>
      </trkpt>
      <trkpt lat="48.00928" lon="7.13814">
        <ele>871</ele>
        <time>2021-09-27T07:17:27Z</time>
      </trkpt>
      <trkpt lat="48.01102" lon="7.1386">
        <ele>852</ele>
        <time>2021-09-27T07:21:23Z</time>
      </trkpt>
      <trkpt lat="48.01225" lon="7.13937">
        <ele>819</ele>
        <time>2021-09-27T07:24:21Z</time>
      </trkpt>
      <trkpt lat="48.01308" lon="7.14013">
        <ele>796</ele>
        <time>2021-09-27T07:26:31Z</time>
      </trkpt>
      <trkpt lat="48.01387" lon="7.14013">
        <ele>788</ele>
        <time>2021-09-27T07:28:16Z</time>
      </trkpt>
      <trkpt lat="48.01479" lon="7.13997">
        <ele>772</ele>
        <time>2021-09-27T07:30:20Z</time>
      </trkpt>
      <trkpt lat="48.01527" lon="7.13901">
        <ele>770</ele>
        <time>2021-09-27T07:32:07Z</time>
      </trkpt>
      <trkpt lat="48.01609" lon="7.13819">
        <ele>764</ele>
        <time>2021-09-27T07:34:18Z</time>
      </trkpt>
      <trkpt lat="48.01738" lon="7.13793">
        <ele>765</ele>
        <time>2021-09-27T07:37:12Z</time>
      </trkpt>
      <trkpt lat="48.01817" lon="7.13737">
        <ele>764</ele>
        <time>2021-09-27T07:39:09Z</time>
      </trkpt>
      <trkpt lat="48.01933" lon="7.13707">
        <ele>756</ele>
        <time>2021-09-27T07:41:46Z</time>
      </trkpt>
      <trkpt lat="48.0209" lon="7.13769">
        <ele>736</ele>
        <time>2021-09-27T07:45:22Z</time>
      </trkpt>
      <trkpt lat="48.02162" lon="7.138">
        <ele>733</ele>
        <time>2021-09-27T07:47:02Z</time>
      </trkpt>
      <trkpt lat="48.02208" lon="7.13811">
        <ele>728</ele>
        <time>2021-09-27T07:48:05Z</time>
      </trkpt>
      <trkpt lat="48.02216" lon="7.13872">
        <ele>718</ele>
        <time>2021-09-27T07:49:00Z</time>
      </trkpt>
      <trkpt lat="48.02228" lon="7.13901">
        <ele>713</ele>
        <time>2021-09-27T07:49:30Z</time>
      </trkpt>
      <trkpt lat="48.02278" lon="7.13804">
        <ele>716</ele>
        <time>2021-09-27T07:51:20Z</time>
      </trkpt>
      <trkpt lat="48.02353" lon="7.13721">
        <ele>705</ele>
        <time>2021-09-27T07:53:24Z</time>
      </trkpt>
      <trkpt lat="48.02457" lon="7.13594">
        <ele>697</ele>
        <time>2021-09-27T07:56:24Z</time>
      </trkpt>
      <trkpt lat="48.02517" lon="7.13533">
        <ele>694</ele>
        <time>2021-09-27T07:58:00Z</time>
      </trkpt>
      <trkpt lat="48.02597" lon="7.13432">
        <ele>684</ele>
        <time>2021-09-27T08:00:20Z</time>
      </trkpt>
      <trkpt lat="48.02662" lon="7.13356">
        <ele>673</ele>
        <time>2021-09-27T08:02:10Z</time>
      </trkpt>
      <trkpt lat="48.0273" lon="7.13345">
        <ele>651</ele>
        <time>2021-09-27T08:03:41Z</time>
      </trkpt>
      <trkpt lat="48.02873" lon="7.13372">
        <ele>616</ele>
        <time>2021-09-27T08:06:54Z</time>
      </trkpt>
      <trkpt lat="48.03008" lon="7.13372">
        <ele>572</ele>
        <time>2021-09-27T08:09:54Z</time>
      </trkpt>
      <trkpt lat="48.03139" lon="7.133">
        <ele>521</ele>
        <time>2021-09-27T08:13:00Z</time>
      </trkpt>
      <trkpt lat="48.03296" lon="7.13293">
        <ele>464</ele>
        <time>2021-09-27T08:16:30Z</time>
      </trkpt>
      <trkpt lat="48.03333" lon="7.1331">
        <ele>449</ele>
        <time>2021-09-27T08:17:21Z</time>
      </trkpt>
      <trkpt lat="48.03389" lon="7.132">
        <ele>435</ele>
        <time>2021-09-27T08:19:25Z</time>
      </trkpt>
      <trkpt lat="48.03377" lon="7.13038">
        <ele>421</ele>
        <time>2021-09-27T08:21:50Z</time>
      </trkpt>
      <trkpt lat="48.03368" lon="7.12948">
        <ele>409</ele>
        <time>2021-09-27T08:23:11Z</time>
      </trkpt>
      <trkpt lat="48.03428" lon="7.13045">
        <ele>406</ele>
        <time>2021-09-27T08:25:09Z</time>
      </trkpt>
      <trkpt lat="48.03467" lon="7.13135">
        <ele>403</ele>
        <time>2021-09-27T08:26:45Z</time>
      </trkpt>
      <trkpt lat="48.03501" lon="7.13229">
        <ele>397</ele>
        <time>2021-09-27T08:28:20Z</time>
      </trkpt>
      <trkpt lat="48.03554" lon="7.13298">
        <ele>392</ele>
        <time>2021-09-27T08:29:54Z</time>
      </trkpt>
      <trkpt lat="48.03648" lon="7.13294">
        <ele>382</ele>
        <time>2021-09-27T08:32:00Z</time>
      </trkpt>
      <trkpt lat="48.03742" lon="7.13287">
        <ele>382</ele>
        <time>2021-09-27T08:34:05Z</time>
      </trkpt>
      <trkpt lat="48.04108" lon="7.13243">
        <ele>387.8</ele>
      </trkpt>
    </trkseg>
  </trk>
</gpx>